Arthur Brusco — WDC3449 — position and weather

sailwx.info

Track history (hours):
 
Tides and Currents Weather Stations Pressure Air Temp Water Temp Dewpoint Dewpoint Depression Visibility Wind Speed Wind Dir Waves Ship Positions

Arthur Brusco

Owner: Brusco Tug & Barge, Inc, Longview, WA. More information available from US FCC via Universal Licensing System and Coast Guard Vessel Documentation Center.

Last reported at 2015-Mar-02 14:22 UTC. Time now 2015-Mar-02 15:05 UTC.
Position N 37°48' W 122°31'.

Length 35 m; draft 4.2 m.

Type: Towing. MMSI: 367008020.

Date/timePositionNaut miles runAvg speedWind from/ knotsBaromVisibWave heightAir tempDewpointWater temp
2015-Mar-02 14:22N 37°48' W 122°31'5 6.0
2015-Mar-02 13:33N 37°50' W 122°25'4 4.4
2015-Mar-02 12:33N 37°54' W 122°24'1 1.2
2015-Mar-02 11:33N 37°54' W 122°25'5 5.4
2015-Mar-02 10:33N 37°49' W 122°27'6 5.8
2015-Mar-02 09:31N 37°47' W 122°34'14 7.0
2015-Mar-02 07:30N 37°39' W 122°49'9 9.1
2015-Mar-02 06:33N 37°35' W 122°58'8 8.1
2015-Mar-02 05:33N 37°34' W 123°09'9 8.9
2015-Mar-02 04:33N 37°36' W 123°19'8 8.2
2015-Mar-02 03:33N 37°39' W 123°29'8 6.2
2015-Mar-02 02:19N 37°38' W 123°20'5 6.3
2015-Mar-02 01:33N 37°37' W 123°13'8 6.3
2015-Mar-02 00:20N 37°36' W 123°04'15 6.6
2015-Mar-01 22:03N 37°43' W 122°47'5 6.5
2015-Mar-01 21:14N 37°46' W 122°41'5 7.2
2015-Mar-01 20:29N 37°47' W 122°35'8 8.9
2015-Mar-01 19:33N 37°51' W 122°25'4 4.1
2015-Mar-01 18:33N 37°54' W 122°23'1 1.2
2015-Mar-01 17:30N 37°55' W 122°22'0 0.0
2015-Mar-01 16:32N 37°55' W 122°22'0 0.0
2015-Mar-01 15:31N 37°55' W 122°22'1 0.6
2015-Mar-01 14:33N 37°55' W 122°22'1 0.5
2015-Mar-01 13:33N 37°54' W 122°22'0 0.0
2015-Mar-01 12:33N 37°54' W 122°22'0 0.0
2015-Mar-01 11:33N 37°54' W 122°22'0 0.0
2015-Mar-01 10:32N 37°54' W 122°22'0 0.0
2015-Mar-01 09:33N 37°54' W 122°22'0 0.0
2015-Mar-01 08:33N 37°54' W 122°22'0 0.0
2015-Mar-01 07:33N 37°54' W 122°22'0 0.0
2015-Mar-01 06:33N 37°54' W 122°22'0 0.0
2015-Mar-01 05:33N 37°54' W 122°22'0 0.0
2015-Mar-01 04:33N 37°54' W 122°22'1 1.1
2015-Mar-01 03:33N 37°54' W 122°23'3 3.0
2015-Mar-01 02:33N 37°52' W 122°24'8 7.8
2015-Mar-01 01:31N 37°47' W 122°33'16 7.7
2015-Feb-28 23:25N 37°39' W 122°50'8 9.5
2015-Feb-28 22:33N 37°34' W 122°59'3 0.4
2015-Feb-28 16:08N 37°37' W 122°59'12 7.0
2015-Feb-28 14:28N 37°43' W 122°47'6 6.2
2015-Feb-28 13:30N 37°46' W 122°40'6 5.9
2015-Feb-28 12:33N 37°48' W 122°33'6 6.3
2015-Feb-28 11:32N 37°50' W 122°26'5 4.9
2015-Feb-28 10:33N 37°54' W 122°23'1 1.3
2015-Feb-28 09:33N 37°54' W 122°25'5 5.1
2015-Feb-28 08:33N 37°49' W 122°27'5 5.2
2015-Feb-28 07:33N 37°47' W 122°33'7 7.1
2015-Feb-28 06:34N 37°44' W 122°41'6 5.7
2015-Feb-28 05:29N 37°41' W 122°47'8 8.4
2015-Feb-28 04:33N 37°36' W 122°55'10 7.8
2015-Feb-28 03:15N 37°34' W 123°08'4 0.7
2015-Feb-27 21:15N 37°36' W 123°03'13 6.1
2015-Feb-27 19:08N 37°42' W 122°49'9 5.9
2015-Feb-27 17:33N 37°46' W 122°38'7 7.1
2015-Feb-27 16:33N 37°49' W 122°30'6 5.9
2015-Feb-27 15:33N 37°53' W 122°25'2 1.8
2015-Feb-27 14:33N 37°54' W 122°23'0 0.0
2015-Feb-27 13:33N 37°54' W 122°23'0 0.0
2015-Feb-27 12:33N 37°54' W 122°23'0 0.0
2015-Feb-27 11:33N 37°54' W 122°23'0 0.2
2015-Feb-27 10:33N 37°54' W 122°23'0 0.2
2015-Feb-27 09:33N 37°54' W 122°23'0 0.0
2015-Feb-27 08:33N 37°54' W 122°23'0 0.0
2015-Feb-27 07:33N 37°54' W 122°23'0 0.0
2015-Feb-27 06:33N 37°54' W 122°23'0 0.0
2015-Feb-27 05:33N 37°54' W 122°23'0 0.3
2015-Feb-27 04:33N 37°54' W 122°24'1 0.7
2015-Feb-27 03:33N 37°54' W 122°25'2 2.1
2015-Feb-27 02:33N 37°54' W 122°22'0 0.0
2015-Feb-27 01:33N 37°54' W 122°22'0 0.0
2015-Feb-27 00:33N 37°54' W 122°22'0 0.0
2015-Feb-26 23:33N 37°54' W 122°22'0 0.0
2015-Feb-26 22:33N 37°54' W 122°22'0 0.0
2015-Feb-26 21:33N 37°54' W 122°22'0 0.0
2015-Feb-26 20:33N 37°54' W 122°22'0 0.1
2015-Feb-26 19:34N 37°54' W 122°22'1 1.1
2015-Feb-26 18:33N 37°54' W 122°23'0 0.0
2015-Feb-26 17:33N 37°54' W 122°23'0 0.0
2015-Feb-26 16:33N 37°54' W 122°23'0 0.0
2015-Feb-26 15:33N 37°54' W 122°23'0 0.0
2015-Feb-26 14:33N 37°54' W 122°23'0 0.0
2015-Feb-26 13:33N 37°54' W 122°23'0 0.0
2015-Feb-26 12:33N 37°54' W 122°23'0 0.0
2015-Feb-26 11:33N 37°54' W 122°23'0 0.0
2015-Feb-26 10:33N 37°54' W 122°23'0 0.0
2015-Feb-26 09:33N 37°54' W 122°23'1 1.3
2015-Feb-26 08:33N 37°54' W 122°25'5 5.3
2015-Feb-26 07:33N 37°49' W 122°28'7 7.4
2015-Feb-26 06:33N 37°46' W 122°37'7 7.0
2015-Feb-26 05:33N 37°42' W 122°44'8 8.2
2015-Feb-26 04:33N 37°38' W 122°52'9 8.7
2015-Feb-26 03:33N 37°33' W 123°02'9 9.0
2015-Feb-26 02:32N 37°35' W 123°13'9 9.6
2015-Feb-26 01:33N 37°38' W 123°24'1 0.7
2015-Feb-26 00:20N 37°38' W 123°24'5 5.8
2015-Feb-25 23:25N 37°38' W 123°17'6 6.3
2015-Feb-25 22:27N 37°37' W 123°10'5 6.2
2015-Feb-25 21:33N 37°36' W 123°03'7 7.3
2015-Feb-25 20:33N 37°39' W 122°54'8 8.0
2015-Feb-25 19:33N 37°44' W 122°46'8 8.1
2015-Feb-25 18:33N 37°47' W 122°36'1010.0
2015-Feb-25 17:34N 37°51' W 122°25'4 3.7
2015-Feb-25 16:33N 37°54' W 122°23'0 0.2
2015-Feb-25 15:33N 37°54' W 122°23'0 0.0
2015-Feb-25 14:33N 37°54' W 122°23'0 0.0
2015-Feb-25 13:33N 37°54' W 122°23'0 0.0
2015-Feb-25 12:33N 37°54' W 122°23'0 0.0
2015-Feb-25 11:33N 37°54' W 122°23'0 0.1
2015-Feb-25 10:33N 37°54' W 122°23'1 1.3
2015-Feb-25 09:33N 37°54' W 122°22'3 2.6
2015-Feb-25 08:33N 37°53' W 122°25'6 5.8
2015-Feb-25 07:33N 37°49' W 122°29'7 7.3
2015-Feb-25 06:33N 37°46' W 122°38'7 6.8
2015-Feb-25 05:33N 37°42' W 122°45'9 9.1
2015-Feb-25 04:33N 37°37' W 122°54'9 9.0
2015-Feb-25 03:33N 37°33' W 123°04'9 9.5
2015-Feb-25 02:33N 37°36' W 123°16'9 9.4
2015-Feb-25 01:33N 37°38' W 123°27'3 3.4
2015-Feb-25 00:33N 37°38' W 123°23'7 6.7
2015-Feb-24 23:33N 37°37' W 123°15'7 6.7
2015-Feb-24 22:33N 37°36' W 123°06'6 6.2
2015-Feb-24 21:33N 37°37' W 122°58'7 7.0
2015-Feb-24 20:33N 37°41' W 122°51'7 7.0
2015-Feb-24 19:33N 37°45' W 122°44'7 7.2
2015-Feb-24 18:33N 37°47' W 122°35'8 8.4
2015-Feb-24 17:33N 37°50' W 122°25'4 4.2
2015-Feb-24 16:34N 37°54' W 122°23'1 1.1
2015-Feb-24 15:33N 37°54' W 122°22'0 0.0
2015-Feb-24 14:33N 37°54' W 122°22'0 0.0
2015-Feb-24 13:33N 37°54' W 122°22'0 0.0
2015-Feb-24 12:33N 37°54' W 122°22'0 0.0
2015-Feb-24 11:33N 37°54' W 122°22'0 0.0
2015-Feb-24 10:33N 37°54' W 122°22'0 0.0
2015-Feb-24 09:33N 37°54' W 122°22'0 0.0
2015-Feb-24 08:33N 37°54' W 122°22'0 0.0
2015-Feb-24 07:33N 37°54' W 122°22'0 0.0
2015-Feb-24 06:33N 37°54' W 122°22'0 0.0
2015-Feb-24 05:33N 37°54' W 122°22'0 0.0
2015-Feb-24 04:33N 37°54' W 122°22'0 0.0
2015-Feb-24 03:33N 37°54' W 122°22'0 0.0
2015-Feb-24 02:33N 37°54' W 122°22'2 2.3
2015-Feb-24 01:32N 37°54' W 122°25'5 5.6
2015-Feb-24 00:34N 37°49' W 122°27'9 9.2
2015-Feb-23 23:34N 37°46' W 122°38'19 9.3
2015-Feb-23 21:33N 37°35' W 122°57'3 0.6
2015-Feb-23 15:33N 37°36' W 123°01'16 7.4
2015-Feb-23 13:26N 37°44' W 122°44'6 6.8
2015-Feb-23 12:33N 37°46' W 122°37'8 7.8
2015-Feb-23 11:34N 37°49' W 122°28'5 5.4
2015-Feb-23 10:34N 37°54' W 122°25'2 1.6
2015-Feb-23 09:34N 37°54' W 122°23'0 0.4
2015-Feb-23 08:34N 37°54' W 122°23'0 0.0
2015-Feb-23 07:34N 37°54' W 122°23'0 0.0
2015-Feb-23 06:34N 37°54' W 122°23'0 0.0
2015-Feb-23 05:34N 37°54' W 122°23'0 0.0
2015-Feb-23 04:34N 37°54' W 122°23'0 0.0
2015-Feb-23 03:34N 37°54' W 122°23'0 0.0
2015-Feb-23 02:34N 37°54' W 122°23'0 0.1
2015-Feb-23 01:34N 37°54' W 122°23'1 1.0
2015-Feb-23 00:33N 37°54' W 122°22'0 0.0
2015-Feb-22 23:34N 37°54' W 122°22'0 0.0
2015-Feb-22 22:34N 37°54' W 122°22'0 0.0
2015-Feb-22 21:34N 37°54' W 122°22'0 0.0
2015-Feb-22 20:34N 37°54' W 122°22'0 0.0
2015-Feb-22 19:34N 37°54' W 122°22'0 0.0
2015-Feb-22 18:34N 37°54' W 122°22'0 0.3
2015-Feb-22 17:34N 37°54' W 122°22'1 1.4
2015-Feb-22 16:33N 37°54' W 122°23'0 0.0
2015-Feb-22 15:33N 37°54' W 122°23'0 0.0
2015-Feb-22 14:34N 37°54' W 122°23'0 0.0
2015-Feb-22 13:34N 37°54' W 122°23'0 0.0
2015-Feb-22 12:34N 37°54' W 122°23'0 0.0
2015-Feb-22 11:34N 37°54' W 122°23'0 0.0
2015-Feb-22 10:34N 37°54' W 122°23'0 0.0
2015-Feb-22 09:34N 37°54' W 122°23'0 0.0
2015-Feb-22 08:34N 37°54' W 122°23'0 0.0
2015-Feb-22 07:34N 37°54' W 122°23'0 0.0
2015-Feb-22 06:34N 37°54' W 122°23'0 0.0
2015-Feb-22 05:33N 37°54' W 122°23'3 3.1
2015-Feb-22 04:33N 37°51' W 122°24'7 7.0
2015-Feb-22 03:33N 37°48' W 122°32'8 8.0
2015-Feb-22 02:34N 37°44' W 122°41'9 9.2
2015-Feb-22 01:33N 37°39' W 122°50'1110.0
2015-Feb-22 00:29N 37°33' W 123°02'15 4.9
2015-Feb-21 21:19N 37°38' W 123°20'6 8.4
2015-Feb-21 20:33N 37°37' W 123°12'8 8.3
2015-Feb-21 19:33N 37°36' W 123°02'9 8.7
2015-Feb-21 18:33N 37°40' W 122°52'9 8.6
2015-Feb-21 17:32N 37°45' W 122°43'8 8.3
2015-Feb-21 16:34N 37°48' W 122°33'9 8.7
2015-Feb-21 15:34N 37°53' W 122°25'2 1.9
2015-Feb-21 14:34N 37°54' W 122°23'0 0.0
2015-Feb-21 13:34N 37°54' W 122°23'0 0.0
2015-Feb-21 12:34N 37°54' W 122°23'0 0.0
2015-Feb-21 11:34N 37°54' W 122°23'1 1.3
2015-Feb-21 10:34N 37°54' W 122°22'1 1.4
2015-Feb-21 09:34N 37°54' W 122°23'0 0.0
2015-Feb-21 08:34N 37°54' W 122°23'0 0.0
2015-Feb-21 07:34N 37°54' W 122°23'0 0.0
2015-Feb-21 06:34N 37°54' W 122°23'0 0.0
2015-Feb-21 05:34N 37°54' W 122°23'5 4.9
2015-Feb-21 04:33N 37°59' W 122°27'3 3.2
2015-Feb-21 03:33N 37°56' W 122°25'6 5.7
2015-Feb-21 02:33N 37°50' W 122°24'5 5.3
2015-Feb-21 01:33N 37°45' W 122°23'10 9.6
2015-Feb-21 00:33N 37°54' W 122°25'4 4.3
2015-Feb-20 23:34N 37°58' W 122°27'4 3.6
2015-Feb-20 22:34N 37°55' W 122°27'5 4.7
2015-Feb-20 21:34N 37°51' W 122°24'4 4.5
2015-Feb-20 20:33N 37°46' W 122°23'1 1.5
2015-Feb-20 19:34N 37°45' W 122°22'10 9.6
2015-Feb-20 18:33N 37°54' W 122°23'0 0.0
2015-Feb-20 17:33N 37°54' W 122°23'0 0.0
2015-Feb-20 16:33N 37°54' W 122°23'0 0.0
2015-Feb-20 15:33N 37°54' W 122°23'0 0.0
2015-Feb-20 14:33N 37°54' W 122°23'  
Track history (hours):
 
Tides and Currents Weather Stations Pressure Air Temp Water Temp Dewpoint Dewpoint Depression Visibility Wind Speed Wind Dir Waves Ship Positions

Arthur Brusco

Owner: Brusco Tug & Barge, Inc, Longview, WA. More information available from US FCC via Universal Licensing System and Coast Guard Vessel Documentation Center.

Last reported at 2015-Mar-02 14:22 UTC. Time now 2015-Mar-02 15:05 UTC.
Position N 37°48' W 122°31'.

Length 35 m; draft 4.2 m.

Type: Towing. MMSI: 367008020.

Date/timePositionNaut miles runAvg speedWind from/ knotsBaromVisibWave heightAir tempDewpointWater temp
2015-Mar-02 14:22N 37°48' W 122°31'5 6.0
2015-Mar-02 13:33N 37°50' W 122°25'4 4.4
2015-Mar-02 12:33N 37°54' W 122°24'1 1.2
2015-Mar-02 11:33N 37°54' W 122°25'5 5.4
2015-Mar-02 10:33N 37°49' W 122°27'6 5.8
2015-Mar-02 09:31N 37°47' W 122°34'14 7.0
2015-Mar-02 07:30N 37°39' W 122°49'9 9.1
2015-Mar-02 06:33N 37°35' W 122°58'8 8.1
2015-Mar-02 05:33N 37°34' W 123°09'9 8.9
2015-Mar-02 04:33N 37°36' W 123°19'8 8.2
2015-Mar-02 03:33N 37°39' W 123°29'8 6.2
2015-Mar-02 02:19N 37°38' W 123°20'5 6.3
2015-Mar-02 01:33N 37°37' W 123°13'8 6.3
2015-Mar-02 00:20N 37°36' W 123°04'15 6.6
2015-Mar-01 22:03N 37°43' W 122°47'5 6.5
2015-Mar-01 21:14N 37°46' W 122°41'5 7.2
2015-Mar-01 20:29N 37°47' W 122°35'8 8.9
2015-Mar-01 19:33N 37°51' W 122°25'4 4.1
2015-Mar-01 18:33N 37°54' W 122°23'1 1.2
2015-Mar-01 17:30N 37°55' W 122°22'0 0.0
2015-Mar-01 16:32N 37°55' W 122°22'0 0.0
2015-Mar-01 15:31N 37°55' W 122°22'1 0.6
2015-Mar-01 14:33N 37°55' W 122°22'1 0.5
2015-Mar-01 13:33N 37°54' W 122°22'0 0.0
2015-Mar-01 12:33N 37°54' W 122°22'0 0.0
2015-Mar-01 11:33N 37°54' W 122°22'0 0.0
2015-Mar-01 10:32N 37°54' W 122°22'0 0.0
2015-Mar-01 09:33N 37°54' W 122°22'0 0.0
2015-Mar-01 08:33N 37°54' W 122°22'0 0.0
2015-Mar-01 07:33N 37°54' W 122°22'0 0.0
2015-Mar-01 06:33N 37°54' W 122°22'0 0.0
2015-Mar-01 05:33N 37°54' W 122°22'0 0.0
2015-Mar-01 04:33N 37°54' W 122°22'1 1.1
2015-Mar-01 03:33N 37°54' W 122°23'3 3.0
2015-Mar-01 02:33N 37°52' W 122°24'8 7.8
2015-Mar-01 01:31N 37°47' W 122°33'16 7.7
2015-Feb-28 23:25N 37°39' W 122°50'8 9.5
2015-Feb-28 22:33N 37°34' W 122°59'3 0.4
2015-Feb-28 16:08N 37°37' W 122°59'12 7.0
2015-Feb-28 14:28N 37°43' W 122°47'6 6.2
2015-Feb-28 13:30N 37°46' W 122°40'6 5.9
2015-Feb-28 12:33N 37°48' W 122°33'6 6.3
2015-Feb-28 11:32N 37°50' W 122°26'5 4.9
2015-Feb-28 10:33N 37°54' W 122°23'1 1.3
2015-Feb-28 09:33N 37°54' W 122°25'5 5.1
2015-Feb-28 08:33N 37°49' W 122°27'5 5.2
2015-Feb-28 07:33N 37°47' W 122°33'7 7.1
2015-Feb-28 06:34N 37°44' W 122°41'6 5.7
2015-Feb-28 05:29N 37°41' W 122°47'8 8.4
2015-Feb-28 04:33N 37°36' W 122°55'10 7.8
2015-Feb-28 03:15N 37°34' W 123°08'4 0.7
2015-Feb-27 21:15N 37°36' W 123°03'13 6.1
2015-Feb-27 19:08N 37°42' W 122°49'9 5.9
2015-Feb-27 17:33N 37°46' W 122°38'7 7.1
2015-Feb-27 16:33N 37°49' W 122°30'6 5.9
2015-Feb-27 15:33N 37°53' W 122°25'2 1.8
2015-Feb-27 14:33N 37°54' W 122°23'0 0.0
2015-Feb-27 13:33N 37°54' W 122°23'0 0.0
2015-Feb-27 12:33N 37°54' W 122°23'0 0.0
2015-Feb-27 11:33N 37°54' W 122°23'0 0.2
2015-Feb-27 10:33N 37°54' W 122°23'0 0.2
2015-Feb-27 09:33N 37°54' W 122°23'0 0.0
2015-Feb-27 08:33N 37°54' W 122°23'0 0.0
2015-Feb-27 07:33N 37°54' W 122°23'0 0.0
2015-Feb-27 06:33N 37°54' W 122°23'0 0.0
2015-Feb-27 05:33N 37°54' W 122°23'0 0.3
2015-Feb-27 04:33N 37°54' W 122°24'1 0.7
2015-Feb-27 03:33N 37°54' W 122°25'2 2.1
2015-Feb-27 02:33N 37°54' W 122°22'0 0.0
2015-Feb-27 01:33N 37°54' W 122°22'0 0.0
2015-Feb-27 00:33N 37°54' W 122°22'0 0.0
2015-Feb-26 23:33N 37°54' W 122°22'0 0.0
2015-Feb-26 22:33N 37°54' W 122°22'0 0.0
2015-Feb-26 21:33N 37°54' W 122°22'0 0.0
2015-Feb-26 20:33N 37°54' W 122°22'0 0.1
2015-Feb-26 19:34N 37°54' W 122°22'1 1.1
2015-Feb-26 18:33N 37°54' W 122°23'0 0.0
2015-Feb-26 17:33N 37°54' W 122°23'0 0.0
2015-Feb-26 16:33N 37°54' W 122°23'0 0.0
2015-Feb-26 15:33N 37°54' W 122°23'0 0.0
2015-Feb-26 14:33N 37°54' W 122°23'0 0.0
2015-Feb-26 13:33N 37°54' W 122°23'0 0.0
2015-Feb-26 12:33N 37°54' W 122°23'0 0.0
2015-Feb-26 11:33N 37°54' W 122°23'0 0.0
2015-Feb-26 10:33N 37°54' W 122°23'0 0.0
2015-Feb-26 09:33N 37°54' W 122°23'1 1.3
2015-Feb-26 08:33N 37°54' W 122°25'5 5.3
2015-Feb-26 07:33N 37°49' W 122°28'7 7.4
2015-Feb-26 06:33N 37°46' W 122°37'7 7.0
2015-Feb-26 05:33N 37°42' W 122°44'8 8.2
2015-Feb-26 04:33N 37°38' W 122°52'9 8.7
2015-Feb-26 03:33N 37°33' W 123°02'9 9.0
2015-Feb-26 02:32N 37°35' W 123°13'9 9.6
2015-Feb-26 01:33N 37°38' W 123°24'1 0.7
2015-Feb-26 00:20N 37°38' W 123°24'5 5.8
2015-Feb-25 23:25N 37°38' W 123°17'6 6.3
2015-Feb-25 22:27N 37°37' W 123°10'5 6.2
2015-Feb-25 21:33N 37°36' W 123°03'7 7.3
2015-Feb-25 20:33N 37°39' W 122°54'8 8.0
2015-Feb-25 19:33N 37°44' W 122°46'8 8.1
2015-Feb-25 18:33N 37°47' W 122°36'1010.0
2015-Feb-25 17:34N 37°51' W 122°25'4 3.7
2015-Feb-25 16:33N 37°54' W 122°23'0 0.2
2015-Feb-25 15:33N 37°54' W 122°23'0 0.0
2015-Feb-25 14:33N 37°54' W 122°23'0 0.0
2015-Feb-25 13:33N 37°54' W 122°23'0 0.0
2015-Feb-25 12:33N 37°54' W 122°23'0 0.0
2015-Feb-25 11:33N 37°54' W 122°23'0 0.1
2015-Feb-25 10:33N 37°54' W 122°23'1 1.3
2015-Feb-25 09:33N 37°54' W 122°22'3 2.6
2015-Feb-25 08:33N 37°53' W 122°25'6 5.8
2015-Feb-25 07:33N 37°49' W 122°29'7 7.3
2015-Feb-25 06:33N 37°46' W 122°38'7 6.8
2015-Feb-25 05:33N 37°42' W 122°45'9 9.1
2015-Feb-25 04:33N 37°37' W 122°54'9 9.0
2015-Feb-25 03:33N 37°33' W 123°04'9 9.5
2015-Feb-25 02:33N 37°36' W 123°16'9 9.4
2015-Feb-25 01:33N 37°38' W 123°27'3 3.4
2015-Feb-25 00:33N 37°38' W 123°23'7 6.7
2015-Feb-24 23:33N 37°37' W 123°15'7 6.7
2015-Feb-24 22:33N 37°36' W 123°06'6 6.2
2015-Feb-24 21:33N 37°37' W 122°58'7 7.0
2015-Feb-24 20:33N 37°41' W 122°51'7 7.0
2015-Feb-24 19:33N 37°45' W 122°44'7 7.2
2015-Feb-24 18:33N 37°47' W 122°35'8 8.4
2015-Feb-24 17:33N 37°50' W 122°25'4 4.2
2015-Feb-24 16:34N 37°54' W 122°23'1 1.1
2015-Feb-24 15:33N 37°54' W 122°22'0 0.0
2015-Feb-24 14:33N 37°54' W 122°22'0 0.0
2015-Feb-24 13:33N 37°54' W 122°22'0 0.0
2015-Feb-24 12:33N 37°54' W 122°22'0 0.0
2015-Feb-24 11:33N 37°54' W 122°22'0 0.0
2015-Feb-24 10:33N 37°54' W 122°22'0 0.0
2015-Feb-24 09:33N 37°54' W 122°22'0 0.0
2015-Feb-24 08:33N 37°54' W 122°22'0 0.0
2015-Feb-24 07:33N 37°54' W 122°22'0 0.0
2015-Feb-24 06:33N 37°54' W 122°22'0 0.0
2015-Feb-24 05:33N 37°54' W 122°22'0 0.0
2015-Feb-24 04:33N 37°54' W 122°22'0 0.0
2015-Feb-24 03:33N 37°54' W 122°22'0 0.0
2015-Feb-24 02:33N 37°54' W 122°22'2 2.3
2015-Feb-24 01:32N 37°54' W 122°25'5 5.6
2015-Feb-24 00:34N 37°49' W 122°27'9 9.2
2015-Feb-23 23:34N 37°46' W 122°38'19 9.3
2015-Feb-23 21:33N 37°35' W 122°57'3 0.6
2015-Feb-23 15:33N 37°36' W 123°01'16 7.4
2015-Feb-23 13:26N 37°44' W 122°44'6 6.8
2015-Feb-23 12:33N 37°46' W 122°37'8 7.8
2015-Feb-23 11:34N 37°49' W 122°28'5 5.4
2015-Feb-23 10:34N 37°54' W 122°25'2 1.6
2015-Feb-23 09:34N 37°54' W 122°23'0 0.4
2015-Feb-23 08:34N 37°54' W 122°23'0 0.0
2015-Feb-23 07:34N 37°54' W 122°23'0 0.0
2015-Feb-23 06:34N 37°54' W 122°23'0 0.0
2015-Feb-23 05:34N 37°54' W 122°23'0 0.0
2015-Feb-23 04:34N 37°54' W 122°23'0 0.0
2015-Feb-23 03:34N 37°54' W 122°23'0 0.0
2015-Feb-23 02:34N 37°54' W 122°23'0 0.1
2015-Feb-23 01:34N 37°54' W 122°23'1 1.0
2015-Feb-23 00:33N 37°54' W 122°22'0 0.0
2015-Feb-22 23:34N 37°54' W 122°22'0 0.0
2015-Feb-22 22:34N 37°54' W 122°22'0 0.0
2015-Feb-22 21:34N 37°54' W 122°22'0 0.0
2015-Feb-22 20:34N 37°54' W 122°22'0 0.0
2015-Feb-22 19:34N 37°54' W 122°22'0 0.0
2015-Feb-22 18:34N 37°54' W 122°22'0 0.3
2015-Feb-22 17:34N 37°54' W 122°22'1 1.4
2015-Feb-22 16:33N 37°54' W 122°23'0 0.0
2015-Feb-22 15:33N 37°54' W 122°23'0 0.0
2015-Feb-22 14:34N 37°54' W 122°23'0 0.0
2015-Feb-22 13:34N 37°54' W 122°23'0 0.0
2015-Feb-22 12:34N 37°54' W 122°23'0 0.0
2015-Feb-22 11:34N 37°54' W 122°23'0 0.0
2015-Feb-22 10:34N 37°54' W 122°23'0 0.0
2015-Feb-22 09:34N 37°54' W 122°23'0 0.0
2015-Feb-22 08:34N 37°54' W 122°23'0 0.0
2015-Feb-22 07:34N 37°54' W 122°23'0 0.0
2015-Feb-22 06:34N 37°54' W 122°23'0 0.0
2015-Feb-22 05:33N 37°54' W 122°23'3 3.1
2015-Feb-22 04:33N 37°51' W 122°24'7 7.0
2015-Feb-22 03:33N 37°48' W 122°32'8 8.0
2015-Feb-22 02:34N 37°44' W 122°41'9 9.2
2015-Feb-22 01:33N 37°39' W 122°50'1110.0
2015-Feb-22 00:29N 37°33' W 123°02'15 4.9
2015-Feb-21 21:19N 37°38' W 123°20'6 8.4
2015-Feb-21 20:33N 37°37' W 123°12'8 8.3
2015-Feb-21 19:33N 37°36' W 123°02'9 8.7
2015-Feb-21 18:33N 37°40' W 122°52'9 8.6
2015-Feb-21 17:32N 37°45' W 122°43'8 8.3
2015-Feb-21 16:34N 37°48' W 122°33'9 8.7
2015-Feb-21 15:34N 37°53' W 122°25'2 1.9
2015-Feb-21 14:34N 37°54' W 122°23'0 0.0
2015-Feb-21 13:34N 37°54' W 122°23'0 0.0
2015-Feb-21 12:34N 37°54' W 122°23'0 0.0
2015-Feb-21 11:34N 37°54' W 122°23'1 1.3
2015-Feb-21 10:34N 37°54' W 122°22'1 1.4
2015-Feb-21 09:34N 37°54' W 122°23'0 0.0
2015-Feb-21 08:34N 37°54' W 122°23'0 0.0
2015-Feb-21 07:34N 37°54' W 122°23'0 0.0
2015-Feb-21 06:34N 37°54' W 122°23'0 0.0
2015-Feb-21 05:34N 37°54' W 122°23'5 4.9
2015-Feb-21 04:33N 37°59' W 122°27'3 3.2
2015-Feb-21 03:33N 37°56' W 122°25'6 5.7
2015-Feb-21 02:33N 37°50' W 122°24'5 5.3
2015-Feb-21 01:33N 37°45' W 122°23'10 9.6
2015-Feb-21 00:33N 37°54' W 122°25'4 4.3
2015-Feb-20 23:34N 37°58' W 122°27'4 3.6
2015-Feb-20 22:34N 37°55' W 122°27'5 4.7
2015-Feb-20 21:34N 37°51' W 122°24'4 4.5
2015-Feb-20 20:33N 37°46' W 122°23'1 1.5
2015-Feb-20 19:34N 37°45' W 122°22'10 9.6
2015-Feb-20 18:33N 37°54' W 122°23'0 0.0
2015-Feb-20 17:33N 37°54' W 122°23'0 0.0
2015-Feb-20 16:33N 37°54' W 122°23'0 0.0
2015-Feb-20 15:33N 37°54' W 122°23'0 0.0
2015-Feb-20 14:33N 37°54' W 122°23'  

Dump ship's entire track history